Arctic Bay — 9HTD8 — position and weather

sailwx.info

Track history (hours):
 
Tides and Currents Weather Stations Pressure Air Temp Water Temp Dewpoint Dewpoint Depression Visibility Wind Speed Wind Dir Waves Ship Positions

Arctic Bay

Last reported at 2014-Dec-22 23:33 UTC. Time now 2014-Dec-23 00:11 UTC.
Position N 57°34' E 011°08'.

Length 182 m; draft 12.2 m.

Type: Tanker. MMSI: 256396000.

Date/timePositionNaut miles runAvg speedWind from/ knotsBaromVisibWave heightAir tempDewpointWater temp
2014-Dec-22 23:33N 57°34' E 011°08'1111.2
2014-Dec-22 22:33N 57°27' E 011°26'1212.2
2014-Dec-22 21:33N 57°16' E 011°34'1412.3
2014-Dec-22 20:25N 57°03' E 011°42'1011.8
2014-Dec-22 19:33N 56°53' E 011°48'1110.4
2014-Dec-22 18:32N 56°43' E 011°51'8910.8
2014-Dec-22 10:22N 55°18' E 011°03'8 9.7
2014-Dec-22 09:33N 55°10' E 011°02'1110.7
2014-Dec-22 08:33N 54°60' E 010°59'1310.8
2014-Dec-22 07:23N 54°48' E 010°50'910.2
2014-Dec-22 06:30N 54°39' E 010°50'1010.6
2014-Dec-22 05:33N 54°36' E 011°06'1010.4
2014-Dec-22 04:33N 54°32' E 011°23'1010.2
2014-Dec-22 03:33N 54°28' E 011°39'1110.9
2014-Dec-22 02:33N 54°26' E 011°58'9 9.3
2014-Dec-22 01:33N 54°30' E 012°13'9 9.2
2014-Dec-22 00:33N 54°38' E 012°21'1111.0
2014-Dec-21 23:33N 54°44' E 012°36'2311.3
2014-Dec-21 21:33N 54°53' E 013°12'1311.5
2014-Dec-21 20:25N 54°58' E 013°33'1011.1
2014-Dec-21 19:32N 55°01' E 013°50'1111.0
2014-Dec-21 18:33N 55°06' E 014°07'1111.2
2014-Dec-21 17:33N 55°15' E 014°19'1111.4
2014-Dec-21 16:33N 55°23' E 014°31'1211.9
2014-Dec-21 15:33N 55°30' E 014°49'1211.9
2014-Dec-21 14:33N 55°35' E 015°08'1511.9
2014-Dec-21 13:20N 55°40' E 015°32'34111.7
2014-Dec-20 08:10N 59°36' E 023°12'3511.8
2014-Dec-20 05:14N 59°46' E 024°19'812.2
2014-Dec-20 04:33N 59°48' E 024°35'6012.1
2014-Dec-19 23:33N 60°01' E 026°32'1412.1
2014-Dec-19 22:25N 59°60' E 026°59'4 0.1
2014-Dec-17 20:15N 59°58' E 027°06'1116.2
2014-Dec-17 19:34N 59°59' E 026°44'5416.6
2014-Dec-17 16:17N 59°47' E 024°58'1516.6
2014-Dec-17 15:23N 59°44' E 024°29'1516.5
2014-Dec-17 14:30N 59°40' E 024°01'1616.7
2014-Dec-17 13:33N 59°34' E 023°32'35716.1
2014-Dec-16 15:24N 55°36' E 015°15'1416.7
2014-Dec-16 14:33N 55°29' E 014°54'1717.0
2014-Dec-16 13:33N 55°18' E 014°31'1615.8
2014-Dec-16 12:33N 55°10' E 014°07'1717.4
2014-Dec-16 11:33N 55°12' E 013°37'1716.8
2014-Dec-16 10:33N 55°14' E 013°08'1616.1
2014-Dec-16 09:34N 55°17' E 012°40'1413.5
2014-Dec-16 08:33N 55°31' E 012°42'9 9.3
2014-Dec-16 07:33N 55°40' E 012°41'1312.9
2014-Dec-16 06:33N 55°53' E 012°39'1212.3
2014-Dec-16 05:34N 56°05' E 012°35'1212.1
2014-Dec-16 04:33N 56°12' E 012°17'1312.5
2014-Dec-16 03:31N 56°22' E 012°02'1713.4
2014-Dec-16 02:14N 56°39' E 011°55'1114.6
2014-Dec-16 01:29N 56°49' E 011°49'1512.7
2014-Dec-16 00:16N 57°04' E 011°40'913.4
2014-Dec-15 23:33N 57°13' E 011°34'1313.4
2014-Dec-15 22:33N 57°25' E 011°26'1313.4
2014-Dec-15 21:34N 57°35' E 011°09'1413.5
2014-Dec-15 20:33N 57°44' E 010°50'8213.2
2014-Dec-15 14:19N 57°18' E 008°26'2613.1
2014-Dec-15 12:21N 56°58' E 007°54'7312.7
2014-Dec-15 06:33N 55°51' E 007°01'1212.0
2014-Dec-15 05:34N 55°39' E 007°00'1211.7
2014-Dec-15 04:33N 55°27' E 006°60'1211.5
2014-Dec-15 03:33N 55°16' E 006°60'1111.2
2014-Dec-15 02:33N 55°05' E 006°60'1111.4
2014-Dec-15 01:33N 54°53' E 007°00'9 9.1
2014-Dec-15 00:32N 54°45' E 007°08'1010.6
2014-Dec-14 23:33N 54°35' E 007°11'1110.8
2014-Dec-14 22:34N 54°24' E 007°17'1111.5
2014-Dec-14 21:33N 54°15' E 007°29'1212.2
2014-Dec-14 20:33N 54°08' E 007°45'1313.1
2014-Dec-14 19:33N 54°01' E 008°05'1212.4
2014-Dec-14 18:33N 53°59' E 008°26'1111.4
2014-Dec-14 17:33N 53°53' E 008°42'10 9.7
2014-Dec-14 16:33N 53°51' E 008°58'9 8.9
2014-Dec-14 15:34N 53°53' E 009°13'1110.7
2014-Dec-14 14:33N 53°45' E 009°25'1413.5
2014-Dec-14 13:34N 53°34' E 009°39'1110.5
2014-Dec-14 12:33N 53°31' E 009°56'1 1.3
2014-Dec-14 11:32N 53°30' E 009°57'0 0.0
2014-Dec-14 10:32N 53°30' E 009°57'0 0.0
2014-Dec-14 09:26N 53°30' E 009°57'0 0.0
2014-Dec-14 08:29N 53°30' E 009°57'0 0.0
2014-Dec-14 07:32N 53°30' E 009°57'0 0.0
2014-Dec-14 06:32N 53°30' E 009°57'0 0.0
2014-Dec-14 05:29N 53°30' E 009°57'0 0.0
2014-Dec-14 04:32N 53°30' E 009°57'0 0.0
2014-Dec-14 03:32N 53°30' E 009°57'0 0.0
2014-Dec-14 02:29N 53°30' E 009°57'0 0.0
2014-Dec-14 01:32N 53°30' E 009°57'0 0.0
2014-Dec-14 00:29N 53°30' E 009°57'0 0.0
2014-Dec-13 23:32N 53°30' E 009°57'0 0.0
2014-Dec-13 22:32N 53°30' E 009°57'0 0.0
2014-Dec-13 21:32N 53°30' E 009°57'0 0.0
2014-Dec-13 20:29N 53°30' E 009°57'0 0.0
2014-Dec-13 19:29N 53°30' E 009°57'0 0.0
2014-Dec-13 18:32N 53°30' E 009°57'0 0.0
2014-Dec-13 17:32N 53°30' E 009°57'0 0.0
2014-Dec-13 16:32N 53°30' E 009°57'0 0.0
2014-Dec-13 15:32N 53°30' E 009°57'0 0.0
2014-Dec-13 14:29N 53°30' E 009°57'0 0.0
2014-Dec-13 13:29N 53°30' E 009°57'0 0.0
2014-Dec-13 12:29N 53°30' E 009°57'0 0.0
2014-Dec-13 11:20N 53°30' E 009°57'0 0.0
2014-Dec-13 10:32N 53°30' E 009°57'0 0.0
2014-Dec-13 09:29N 53°30' E 009°57'0 0.0
2014-Dec-13 08:29N 53°30' E 009°57'0 0.0
2014-Dec-13 07:32N 53°30' E 009°57'0 0.0
2014-Dec-13 06:29N 53°30' E 009°57'0 0.0
2014-Dec-13 05:32N 53°30' E 009°57'0 0.0
2014-Dec-13 04:32N 53°30' E 009°57'0 0.0
2014-Dec-13 03:26N 53°30' E 009°57'0 0.0
2014-Dec-13 02:29N 53°30' E 009°57'0 0.0
2014-Dec-13 01:29N 53°30' E 009°57'0 0.0
2014-Dec-13 00:23N 53°30' E 009°57'  
Track history (hours):
 
Tides and Currents Weather Stations Pressure Air Temp Water Temp Dewpoint Dewpoint Depression Visibility Wind Speed Wind Dir Waves Ship Positions

Arctic Bay

Last reported at 2014-Dec-22 23:33 UTC. Time now 2014-Dec-23 00:11 UTC.
Position N 57°34' E 011°08'.

Length 182 m; draft 12.2 m.

Type: Tanker. MMSI: 256396000.

Date/timePositionNaut miles runAvg speedWind from/ knotsBaromVisibWave heightAir tempDewpointWater temp
2014-Dec-22 23:33N 57°34' E 011°08'1111.2
2014-Dec-22 22:33N 57°27' E 011°26'1212.2
2014-Dec-22 21:33N 57°16' E 011°34'1412.3
2014-Dec-22 20:25N 57°03' E 011°42'1011.8
2014-Dec-22 19:33N 56°53' E 011°48'1110.4
2014-Dec-22 18:32N 56°43' E 011°51'8910.8
2014-Dec-22 10:22N 55°18' E 011°03'8 9.7
2014-Dec-22 09:33N 55°10' E 011°02'1110.7
2014-Dec-22 08:33N 54°60' E 010°59'1310.8
2014-Dec-22 07:23N 54°48' E 010°50'910.2
2014-Dec-22 06:30N 54°39' E 010°50'1010.6
2014-Dec-22 05:33N 54°36' E 011°06'1010.4
2014-Dec-22 04:33N 54°32' E 011°23'1010.2
2014-Dec-22 03:33N 54°28' E 011°39'1110.9
2014-Dec-22 02:33N 54°26' E 011°58'9 9.3
2014-Dec-22 01:33N 54°30' E 012°13'9 9.2
2014-Dec-22 00:33N 54°38' E 012°21'1111.0
2014-Dec-21 23:33N 54°44' E 012°36'2311.3
2014-Dec-21 21:33N 54°53' E 013°12'1311.5
2014-Dec-21 20:25N 54°58' E 013°33'1011.1
2014-Dec-21 19:32N 55°01' E 013°50'1111.0
2014-Dec-21 18:33N 55°06' E 014°07'1111.2
2014-Dec-21 17:33N 55°15' E 014°19'1111.4
2014-Dec-21 16:33N 55°23' E 014°31'1211.9
2014-Dec-21 15:33N 55°30' E 014°49'1211.9
2014-Dec-21 14:33N 55°35' E 015°08'1511.9
2014-Dec-21 13:20N 55°40' E 015°32'34111.7
2014-Dec-20 08:10N 59°36' E 023°12'3511.8
2014-Dec-20 05:14N 59°46' E 024°19'812.2
2014-Dec-20 04:33N 59°48' E 024°35'6012.1
2014-Dec-19 23:33N 60°01' E 026°32'1412.1
2014-Dec-19 22:25N 59°60' E 026°59'4 0.1
2014-Dec-17 20:15N 59°58' E 027°06'1116.2
2014-Dec-17 19:34N 59°59' E 026°44'5416.6
2014-Dec-17 16:17N 59°47' E 024°58'1516.6
2014-Dec-17 15:23N 59°44' E 024°29'1516.5
2014-Dec-17 14:30N 59°40' E 024°01'1616.7
2014-Dec-17 13:33N 59°34' E 023°32'35716.1
2014-Dec-16 15:24N 55°36' E 015°15'1416.7
2014-Dec-16 14:33N 55°29' E 014°54'1717.0
2014-Dec-16 13:33N 55°18' E 014°31'1615.8
2014-Dec-16 12:33N 55°10' E 014°07'1717.4
2014-Dec-16 11:33N 55°12' E 013°37'1716.8
2014-Dec-16 10:33N 55°14' E 013°08'1616.1
2014-Dec-16 09:34N 55°17' E 012°40'1413.5
2014-Dec-16 08:33N 55°31' E 012°42'9 9.3
2014-Dec-16 07:33N 55°40' E 012°41'1312.9
2014-Dec-16 06:33N 55°53' E 012°39'1212.3
2014-Dec-16 05:34N 56°05' E 012°35'1212.1
2014-Dec-16 04:33N 56°12' E 012°17'1312.5
2014-Dec-16 03:31N 56°22' E 012°02'1713.4
2014-Dec-16 02:14N 56°39' E 011°55'1114.6
2014-Dec-16 01:29N 56°49' E 011°49'1512.7
2014-Dec-16 00:16N 57°04' E 011°40'913.4
2014-Dec-15 23:33N 57°13' E 011°34'1313.4
2014-Dec-15 22:33N 57°25' E 011°26'1313.4
2014-Dec-15 21:34N 57°35' E 011°09'1413.5
2014-Dec-15 20:33N 57°44' E 010°50'8213.2
2014-Dec-15 14:19N 57°18' E 008°26'2613.1
2014-Dec-15 12:21N 56°58' E 007°54'7312.7
2014-Dec-15 06:33N 55°51' E 007°01'1212.0
2014-Dec-15 05:34N 55°39' E 007°00'1211.7
2014-Dec-15 04:33N 55°27' E 006°60'1211.5
2014-Dec-15 03:33N 55°16' E 006°60'1111.2
2014-Dec-15 02:33N 55°05' E 006°60'1111.4
2014-Dec-15 01:33N 54°53' E 007°00'9 9.1
2014-Dec-15 00:32N 54°45' E 007°08'1010.6
2014-Dec-14 23:33N 54°35' E 007°11'1110.8
2014-Dec-14 22:34N 54°24' E 007°17'1111.5
2014-Dec-14 21:33N 54°15' E 007°29'1212.2
2014-Dec-14 20:33N 54°08' E 007°45'1313.1
2014-Dec-14 19:33N 54°01' E 008°05'1212.4
2014-Dec-14 18:33N 53°59' E 008°26'1111.4
2014-Dec-14 17:33N 53°53' E 008°42'10 9.7
2014-Dec-14 16:33N 53°51' E 008°58'9 8.9
2014-Dec-14 15:34N 53°53' E 009°13'1110.7
2014-Dec-14 14:33N 53°45' E 009°25'1413.5
2014-Dec-14 13:34N 53°34' E 009°39'1110.5
2014-Dec-14 12:33N 53°31' E 009°56'1 1.3
2014-Dec-14 11:32N 53°30' E 009°57'0 0.0
2014-Dec-14 10:32N 53°30' E 009°57'0 0.0
2014-Dec-14 09:26N 53°30' E 009°57'0 0.0
2014-Dec-14 08:29N 53°30' E 009°57'0 0.0
2014-Dec-14 07:32N 53°30' E 009°57'0 0.0
2014-Dec-14 06:32N 53°30' E 009°57'0 0.0
2014-Dec-14 05:29N 53°30' E 009°57'0 0.0
2014-Dec-14 04:32N 53°30' E 009°57'0 0.0
2014-Dec-14 03:32N 53°30' E 009°57'0 0.0
2014-Dec-14 02:29N 53°30' E 009°57'0 0.0
2014-Dec-14 01:32N 53°30' E 009°57'0 0.0
2014-Dec-14 00:29N 53°30' E 009°57'0 0.0
2014-Dec-13 23:32N 53°30' E 009°57'0 0.0
2014-Dec-13 22:32N 53°30' E 009°57'0 0.0
2014-Dec-13 21:32N 53°30' E 009°57'0 0.0
2014-Dec-13 20:29N 53°30' E 009°57'0 0.0
2014-Dec-13 19:29N 53°30' E 009°57'0 0.0
2014-Dec-13 18:32N 53°30' E 009°57'0 0.0
2014-Dec-13 17:32N 53°30' E 009°57'0 0.0
2014-Dec-13 16:32N 53°30' E 009°57'0 0.0
2014-Dec-13 15:32N 53°30' E 009°57'0 0.0
2014-Dec-13 14:29N 53°30' E 009°57'0 0.0
2014-Dec-13 13:29N 53°30' E 009°57'0 0.0
2014-Dec-13 12:29N 53°30' E 009°57'0 0.0
2014-Dec-13 11:20N 53°30' E 009°57'0 0.0
2014-Dec-13 10:32N 53°30' E 009°57'0 0.0
2014-Dec-13 09:29N 53°30' E 009°57'0 0.0
2014-Dec-13 08:29N 53°30' E 009°57'0 0.0
2014-Dec-13 07:32N 53°30' E 009°57'0 0.0
2014-Dec-13 06:29N 53°30' E 009°57'0 0.0
2014-Dec-13 05:32N 53°30' E 009°57'0 0.0
2014-Dec-13 04:32N 53°30' E 009°57'0 0.0
2014-Dec-13 03:26N 53°30' E 009°57'0 0.0
2014-Dec-13 02:29N 53°30' E 009°57'0 0.0
2014-Dec-13 01:29N 53°30' E 009°57'0 0.0
2014-Dec-13 00:23N 53°30' E 009°57'  

Dump ship's entire track history